createdAt,value
2023-12-19T00:13:21.403Z,100593.16
2023-12-19T00:28:58.435Z,100580.79
2023-12-19T00:44:35.497Z,100580.10
2023-12-19T01:00:14.614Z,100555.87
2023-12-19T01:15:51.662Z,100546.50
2023-12-19T01:31:28.799Z,100534.96
2023-12-19T01:47:05.693Z,100508.97
2023-12-19T02:02:43.095Z,100490.34
2023-12-19T02:18:36.972Z,100489.59
2023-12-19T02:34:13.969Z,100475.23
2023-12-19T02:49:50.934Z,100442.76
2023-12-19T03:05:29.112Z,100415.86
2023-12-19T03:21:08.957Z,100401.60
2023-12-19T03:36:46.184Z,100394.48
2023-12-19T03:52:24.022Z,100387.10
2023-12-19T04:08:02.127Z,100381.09
2023-12-19T04:23:41.045Z,100352.42
2023-12-19T04:39:18.166Z,100329.14
2023-12-19T04:54:55.219Z,100345.91
2023-12-19T05:10:32.315Z,100367.37
2023-12-19T05:26:11.284Z,100355.98
2023-12-19T05:41:48.442Z,100363.89
2023-12-19T05:57:25.375Z,100372.86
2023-12-19T06:13:02.485Z,100358.02
2023-12-19T06:28:41.498Z,100340.04
2023-12-19T06:44:21.715Z,100356.07
2023-12-19T06:59:58.515Z,100346.67
2023-12-19T07:15:35.614Z,100366.60
2023-12-19T07:31:12.685Z,100357.56
2023-12-19T07:46:53.788Z,100357.16
2023-12-19T08:02:31.852Z,100335.09
2023-12-19T08:18:08.892Z,100316.71
2023-12-19T08:33:49.454Z,100317.88
2023-12-19T08:49:27.343Z,100304.10
2023-12-19T09:05:05.208Z,100286.23
2023-12-19T09:20:43.383Z,100280.08
2023-12-19T09:36:26.273Z,100271.41
2023-12-19T09:52:05.177Z,100260.79
2023-12-19T10:07:46.122Z,100247.27
2023-12-19T10:23:23.120Z,100228.80
2023-12-19T10:39:01.271Z,100180.47
2023-12-19T10:54:40.239Z,100170.15
2023-12-19T11:10:21.292Z,100157.45
2023-12-19T11:26:12.486Z,100145.25
2023-12-19T11:41:52.481Z,100127.98
2023-12-19T11:57:35.856Z,100107.91
2023-12-19T12:13:13.484Z,100091.13
2023-12-19T12:28:50.641Z,100065.06
2023-12-19T12:44:27.522Z,100048.34
2023-12-19T13:00:08.312Z,100052.38
2023-12-19T13:15:51.698Z,100022.85
2023-12-19T13:31:29.870Z,100003.15
2023-12-19T13:47:06.908Z,99977.34
2023-12-19T14:02:45.723Z,99977.67
2023-12-19T14:18:49.534Z,99945.66
2023-12-19T14:34:26.922Z,99927.02
2023-12-19T14:50:06.303Z,99921.33
2023-12-19T15:05:43.971Z,99918.23
2023-12-19T15:21:21.158Z,99900.11
2023-12-19T15:36:58.654Z,99863.67
2023-12-19T15:52:39.225Z,99819.84
2023-12-19T16:08:25.212Z,99822.95
2023-12-19T16:24:04.579Z,99805.46
2023-12-19T16:39:42.461Z,99792.84
2023-12-19T16:55:20.481Z,99771.63
2023-12-19T17:10:57.415Z,99754.23
2023-12-19T17:26:34.474Z,99723.47
2023-12-19T17:42:12.796Z,99718.46
2023-12-19T17:57:49.780Z,99697.44
2023-12-19T18:13:26.537Z,99682.93
2023-12-19T18:29:03.615Z,99674.48
2023-12-19T18:44:40.671Z,99658.61
2023-12-19T19:00:21.172Z,99642.77
2023-12-19T19:16:01.716Z,99611.80
2023-12-19T19:47:33.825Z,99605.82
2023-12-19T20:03:10.996Z,99596.02
2023-12-19T20:18:50.235Z,99578.81
2023-12-19T20:34:27.130Z,99560.46
2023-12-19T20:50:04.277Z,99540.52
2023-12-19T21:05:41.145Z,99540.31
2023-12-19T21:21:18.140Z,99537.73
2023-12-19T21:37:00.186Z,99506.59
2023-12-19T21:52:37.131Z,99482.04
2023-12-19T22:08:14.178Z,99473.31
2023-12-19T22:23:51.272Z,99457.27
2023-12-19T22:39:29.261Z,99436.77
2023-12-19T22:55:06.416Z,99429.46
2023-12-19T23:10:46.468Z,99410.09
2023-12-19T23:26:23.439Z,99395.98
2023-12-19T23:42:00.389Z,99382.34
2023-12-19T23:57:37.604Z,99379.52
